createdAt,value
2018-06-10T00:01:12.974Z,5.87
2018-06-10T00:03:43.355Z,6.20
2018-06-10T00:06:13.704Z,6.17
2018-06-10T00:08:44.085Z,6.43
2018-06-10T00:11:14.390Z,6.23
2018-06-10T00:13:44.922Z,6.30
2018-06-10T00:16:15.257Z,6.47
2018-06-10T00:18:45.590Z,6.87
2018-06-10T00:21:15.898Z,7.13
2018-06-10T00:23:46.555Z,7.93
2018-06-10T00:26:16.957Z,6.07
2018-06-10T00:28:52.650Z,6.60
2018-06-10T00:31:22.958Z,6.87
2018-06-10T00:33:53.387Z,7.10
2018-06-10T00:36:23.962Z,7.03
2018-06-10T00:38:54.345Z,7.47
2018-06-10T00:41:24.622Z,7.37
2018-06-10T00:43:54.950Z,7.30
2018-06-10T00:46:25.218Z,7.93
2018-06-10T00:48:55.926Z,7.83
2018-06-10T00:51:26.293Z,7.73
2018-06-10T00:53:56.590Z,8.50
2018-06-10T00:56:43.325Z,8.73
2018-06-10T00:59:13.689Z,8.60
2018-06-10T01:01:44.137Z,8.60
2018-06-10T01:04:14.607Z,9.23
2018-06-10T01:06:44.909Z,9.43
2018-06-10T01:09:16.230Z,10.20
2018-06-10T01:11:46.497Z,9.83
2018-06-10T01:14:16.830Z,8.80
2018-06-10T01:16:47.093Z,9.17
2018-06-10T01:19:17.689Z,8.50
2018-06-10T01:21:48.260Z,9.17
2018-06-10T01:24:18.677Z,8.67
2018-06-10T01:26:51.657Z,9.40
2018-06-10T01:29:22.000Z,9.07
2018-06-10T01:31:52.271Z,9.03
2018-06-10T01:34:22.578Z,9.20
2018-06-10T01:36:53.125Z,9.30
2018-06-10T01:39:23.379Z,10.37
2018-06-10T01:41:53.657Z,10.70
2018-06-10T01:44:24.258Z,10.60
2018-06-10T01:46:54.593Z,10.63
2018-06-10T01:49:25.245Z,10.13
2018-06-10T01:51:55.565Z,9.47
2018-06-10T01:54:25.937Z,10.33
2018-06-10T01:56:56.219Z,10.20
2018-06-10T01:59:26.758Z,10.33
2018-06-10T02:01:57.025Z,10.17
2018-06-10T02:04:27.349Z,9.30
2018-06-10T02:06:57.625Z,9.00
2018-06-10T02:09:28.314Z,9.40
2018-06-10T02:11:58.644Z,9.80
2018-06-10T02:14:28.953Z,10.03
2018-06-10T02:16:59.303Z,9.57
2018-06-10T02:19:29.820Z,10.33
2018-06-10T02:22:00.086Z,10.30
2018-06-10T02:24:30.782Z,9.33
2018-06-10T02:27:01.281Z,9.23
2018-06-10T02:29:31.797Z,9.33
2018-06-10T02:32:02.373Z,9.77
2018-06-10T02:34:33.178Z,10.20
2018-06-10T02:37:03.645Z,9.10
2018-06-10T02:39:34.205Z,10.03
2018-06-10T02:42:04.893Z,8.90
2018-06-10T02:44:35.568Z,8.70
2018-06-10T02:47:06.630Z,8.97
2018-06-10T02:49:37.578Z,9.03
2018-06-10T02:52:08.057Z,8.87
2018-06-10T02:54:38.567Z,8.10
2018-06-10T02:57:08.977Z,7.93
2018-06-10T02:59:39.797Z,7.73
2018-06-10T03:02:10.433Z,7.20
2018-06-10T03:04:40.915Z,7.70
2018-06-10T03:07:11.241Z,7.93
2018-06-10T03:09:41.505Z,8.07
2018-06-10T03:12:11.809Z,7.43
2018-06-10T03:14:42.139Z,7.23
2018-06-10T03:17:12.729Z,7.23
2018-06-10T03:19:43.349Z,7.87
2018-06-10T03:22:14.253Z,7.23
2018-06-10T03:24:44.872Z,7.43
2018-06-10T03:27:15.566Z,7.10
2018-06-10T03:29:46.086Z,7.33
2018-06-10T03:32:16.474Z,7.50
2018-06-10T03:34:46.773Z,7.30
2018-06-10T03:37:17.169Z,6.73
2018-06-10T03:39:47.425Z,6.67
2018-06-10T03:42:17.978Z,7.10
2018-06-10T03:44:48.249Z,6.97
2018-06-10T03:47:18.610Z,6.60
2018-06-10T03:49:48.878Z,6.80
2018-06-10T03:52:19.296Z,7.10
2018-06-10T03:54:49.562Z,6.67
2018-06-10T03:57:19.873Z,6.97
2018-06-10T03:59:50.142Z,6.60
2018-06-10T04:02:20.889Z,7.73
2018-06-10T04:04:51.442Z,7.60
2018-06-10T04:07:22.319Z,7.80
2018-06-10T04:09:52.654Z,7.63
2018-06-10T04:12:23.135Z,8.93
2018-06-10T04:14:53.453Z,8.60
2018-06-10T04:17:23.859Z,9.20
2018-06-10T04:19:54.194Z,10.10
2018-06-10T04:22:24.538Z,9.20
2018-06-10T04:24:55.065Z,10.80
2018-06-10T04:27:25.309Z,9.80
2018-06-10T04:29:55.618Z,11.60
2018-06-10T04:32:25.890Z,12.00
2018-06-10T04:34:56.326Z,10.93
2018-06-10T04:37:26.581Z,9.67
2018-06-10T04:39:57.069Z,8.90
2018-06-10T04:42:27.402Z,8.20
2018-06-10T04:44:58.672Z,9.30
2018-06-10T04:47:29.953Z,9.60
2018-06-10T04:50:00.625Z,8.50
2018-06-10T04:52:31.233Z,8.90
2018-06-10T04:55:01.465Z,8.53
2018-06-10T04:57:32.601Z,8.43
2018-06-10T05:00:02.853Z,8.37
2018-06-10T05:02:33.339Z,8.17
2018-06-10T05:05:03.589Z,8.40
2018-06-10T05:07:33.980Z,9.20
2018-06-10T05:10:04.309Z,8.60
2018-06-10T05:12:34.229Z,8.40
2018-06-10T05:15:04.582Z,8.23
2018-06-10T05:17:35.251Z,9.27
2018-06-10T05:20:05.613Z,10.50
2018-06-10T05:22:35.945Z,10.37
2018-06-10T05:25:06.393Z,9.83
2018-06-10T05:27:36.767Z,9.33
2018-06-10T05:30:07.037Z,9.13
2018-06-10T05:32:37.737Z,9.63
2018-06-10T05:35:08.010Z,9.97
2018-06-10T05:37:38.317Z,8.13
2018-06-10T05:40:08.646Z,8.27
2018-06-10T05:42:39.138Z,8.43
2018-06-10T05:45:09.914Z,9.13
2018-06-10T05:47:40.735Z,11.03
2018-06-10T05:50:11.249Z,10.70
2018-06-10T05:52:42.041Z,11.00
2018-06-10T05:55:12.385Z,11.77
2018-06-10T05:57:43.073Z,12.77
2018-06-10T06:00:13.657Z,12.33
2018-06-10T06:02:44.433Z,13.00
2018-06-10T06:05:15.057Z,11.97
2018-06-10T06:07:45.558Z,13.37
2018-06-10T06:10:15.834Z,14.23
2018-06-10T06:12:46.192Z,14.63
2018-06-10T06:15:16.822Z,12.90
2018-06-10T06:17:47.159Z,14.43
2018-06-10T06:20:17.718Z,15.63
2018-06-10T06:22:48.339Z,15.50
2018-06-10T06:25:18.670Z,14.10
2018-06-10T06:27:48.941Z,14.00
2018-06-10T06:30:19.370Z,13.73
2018-06-10T06:32:49.998Z,12.67
2018-06-10T06:35:20.270Z,12.00
2018-06-10T06:37:50.806Z,11.20
2018-06-10T06:40:20.644Z,13.00
2018-06-10T06:42:50.945Z,13.20
2018-06-10T06:45:21.077Z,12.43
2018-06-10T06:47:51.422Z,12.50
2018-06-10T06:50:21.850Z,12.07
2018-06-10T06:52:52.531Z,12.17
2018-06-10T06:55:22.933Z,12.17
2018-06-10T06:57:53.255Z,12.83
2018-06-10T07:00:23.598Z,11.93
2018-06-10T07:02:53.886Z,12.23
2018-06-10T07:05:24.190Z,11.83
2018-06-10T07:07:54.794Z,13.20
2018-06-10T07:10:25.073Z,12.60
2018-06-10T07:12:55.803Z,13.03
2018-06-10T07:15:26.113Z,12.53
2018-06-10T07:17:56.805Z,11.80
2018-06-10T07:20:27.140Z,12.27
2018-06-10T07:22:57.924Z,11.63
2018-06-10T07:25:29.319Z,12.17
2018-06-10T07:27:59.637Z,12.83
2018-06-10T07:30:30.036Z,11.10
2018-06-10T07:33:00.458Z,11.10
2018-06-10T07:35:30.753Z,11.40
2018-06-10T07:38:01.350Z,10.57
2018-06-10T07:40:31.720Z,10.70
2018-06-10T07:43:02.358Z,11.17
2018-06-10T07:45:32.720Z,10.27
2018-06-10T07:48:03.057Z,10.77
2018-06-10T07:50:33.357Z,10.17
2018-06-10T07:53:03.815Z,9.97
2018-06-10T07:55:34.105Z,9.43
2018-06-10T07:58:04.449Z,9.23
2018-06-10T08:00:34.766Z,9.33
2018-06-10T08:03:05.122Z,9.13
2018-06-10T08:05:35.635Z,10.07
2018-06-10T08:08:05.922Z,10.20
2018-06-10T08:10:36.335Z,9.87
2018-06-10T08:13:06.682Z,12.27
2018-06-10T08:15:37.274Z,10.73
2018-06-10T08:18:07.585Z,11.40
2018-06-10T08:20:37.997Z,11.57
2018-06-10T08:23:08.334Z,11.07
2018-06-10T08:25:38.662Z,11.80
2018-06-10T08:28:08.937Z,11.20
2018-06-10T08:30:39.349Z,10.93
2018-06-10T08:33:09.637Z,10.03
2018-06-10T08:35:39.922Z,11.03
2018-06-10T08:38:10.266Z,11.70
2018-06-10T08:40:40.541Z,11.20
2018-06-10T08:43:10.995Z,9.97
2018-06-10T08:45:41.281Z,10.23
2018-06-10T08:48:11.637Z,11.63
2018-06-10T08:50:41.930Z,10.27
2018-06-10T08:53:12.257Z,8.83
2018-06-10T08:55:42.586Z,9.27
2018-06-10T08:58:12.869Z,10.73
2018-06-10T09:00:43.225Z,9.40
2018-06-10T09:03:13.498Z,9.80
2018-06-10T09:05:44.014Z,9.87
2018-06-10T09:08:14.282Z,9.43
2018-06-10T09:10:44.707Z,8.47
2018-06-10T09:13:15.020Z,8.60
2018-06-10T09:15:45.494Z,8.23
2018-06-10T09:18:15.821Z,7.60
2018-06-10T09:20:47.131Z,8.73
2018-06-10T09:23:17.405Z,7.60
2018-06-10T09:25:47.742Z,8.20
2018-06-10T09:28:18.357Z,8.03
2018-06-10T09:30:48.677Z,7.67
2018-06-10T09:33:18.946Z,7.93
2018-06-10T09:35:49.434Z,7.60
2018-06-10T09:38:19.774Z,7.83
2018-06-10T09:40:50.050Z,7.30
2018-06-10T09:43:20.429Z,7.53
2018-06-10T09:45:50.751Z,7.60
2018-06-10T09:48:21.093Z,7.83
2018-06-10T09:50:51.888Z,7.40
2018-06-10T09:53:22.152Z,7.50
2018-06-10T09:55:52.458Z,7.60
2018-06-10T09:58:22.745Z,7.57
2018-06-10T10:00:53.018Z,7.27
2018-06-10T10:03:23.359Z,6.70
2018-06-10T10:05:53.669Z,6.70
2018-06-10T10:08:24.024Z,7.58
2018-06-10T10:10:54.317Z,6.30
2018-06-10T10:13:24.674Z,7.13
2018-06-10T10:15:55.167Z,5.85
2018-06-10T10:18:25.465Z,6.45
2018-06-10T10:20:55.797Z,6.30
2018-06-10T10:23:26.245Z,7.22
2018-06-10T10:25:56.593Z,7.03
2018-06-10T10:28:26.944Z,6.72
2018-06-10T10:30:57.303Z,7.50
2018-06-10T10:33:27.693Z,6.97
2018-06-10T10:35:58.357Z,6.70
2018-06-10T10:38:28.762Z,7.28
2018-06-10T10:40:59.026Z,6.80
2018-06-10T10:43:29.371Z,6.42
2018-06-10T10:45:59.782Z,7.03
2018-06-10T10:48:30.181Z,6.70
2018-06-10T10:51:00.473Z,6.58
2018-06-10T10:53:31.169Z,6.53
2018-06-10T10:56:01.512Z,6.58
2018-06-10T10:58:31.965Z,6.40
2018-06-10T11:01:02.354Z,6.70
2018-06-10T11:03:32.702Z,6.17
2018-06-10T11:06:03.117Z,6.27
2018-06-10T11:08:33.385Z,5.77
2018-06-10T11:11:03.722Z,6.93
2018-06-10T11:13:34.014Z,6.80
2018-06-10T11:16:04.341Z,6.33
2018-06-10T11:18:34.641Z,7.00
2018-06-10T11:21:05.042Z,6.80
2018-06-10T11:23:35.357Z,6.30
2018-06-10T11:26:05.679Z,7.33
2018-06-10T11:28:36.005Z,6.28
2018-06-10T11:31:06.347Z,6.15
2018-06-10T11:33:36.686Z,5.60
2018-06-10T11:36:06.999Z,5.75
2018-06-10T11:38:37.556Z,5.92
2018-06-10T11:41:07.848Z,6.35
2018-06-10T11:43:38.409Z,6.62
2018-06-10T11:46:08.723Z,6.20
2018-06-10T11:48:39.082Z,6.70
2018-06-10T11:51:10.329Z,6.30
2018-06-10T11:53:40.750Z,6.37
2018-06-10T11:56:11.045Z,6.15
2018-06-10T11:58:41.446Z,6.22
2018-06-10T12:01:11.747Z,5.35
2018-06-10T12:03:42.080Z,5.37
2018-06-10T12:06:12.430Z,5.50
2018-06-10T12:08:42.792Z,5.85
2018-06-10T12:11:13.446Z,5.08
2018-06-10T12:13:43.811Z,5.15
2018-06-10T12:16:14.186Z,6.10
2018-06-10T12:18:44.489Z,6.10
2018-06-10T12:21:14.790Z,5.45
2018-06-10T12:23:45.294Z,5.70
2018-06-10T12:26:15.597Z,5.50
2018-06-10T12:28:46.286Z,5.27
2018-06-10T12:31:16.650Z,4.83
2018-06-10T12:33:47.347Z,5.10
2018-06-10T12:36:17.729Z,5.65
2018-06-10T12:38:48.069Z,5.43
2018-06-10T12:41:18.347Z,5.20
2018-06-10T12:43:48.734Z,6.13
2018-06-10T12:46:19.069Z,6.17
2018-06-10T12:48:49.642Z,5.30
2018-06-10T12:51:19.941Z,5.00
2018-06-10T12:53:50.393Z,5.15
2018-06-10T12:56:20.690Z,4.67
2018-06-10T12:58:51.049Z,4.55
2018-06-10T13:01:21.383Z,4.72
2018-06-10T13:03:52.178Z,5.03
2018-06-10T13:06:22.494Z,5.83
2018-06-10T13:08:52.833Z,4.95
2018-06-10T13:11:23.145Z,4.65
2018-06-10T13:13:53.525Z,4.87
2018-06-10T13:16:23.879Z,4.70
2018-06-10T13:18:54.568Z,3.70
2018-06-10T13:21:24.865Z,4.30
2018-06-10T13:23:55.270Z,4.45
2018-06-10T13:26:25.585Z,4.65
2018-06-10T13:28:55.584Z,2.98
2018-06-10T13:31:25.884Z,3.12
2018-06-10T13:33:56.273Z,3.25
2018-06-10T13:36:26.590Z,2.58
2018-06-10T13:38:57.002Z,3.20
2018-06-10T13:41:27.286Z,3.00
2018-06-10T13:43:57.704Z,3.23
2018-06-10T13:46:27.983Z,3.10
2018-06-10T13:48:58.455Z,3.17
2018-06-10T13:51:28.740Z,3.43
2018-06-10T13:53:59.088Z,4.20
2018-06-10T13:56:29.426Z,4.50
2018-06-10T13:58:59.993Z,3.60
2018-06-10T14:01:30.265Z,2.92
2018-06-10T14:04:00.601Z,5.40
2018-06-10T14:06:31.046Z,3.60
2018-06-10T14:09:01.406Z,4.22
2018-06-10T14:11:32.023Z,3.40
2018-06-10T14:14:03.305Z,3.12
2018-06-10T14:16:33.678Z,2.87
2018-06-10T14:19:03.961Z,3.20
2018-06-10T14:21:34.355Z,3.70
2018-06-10T14:24:04.681Z,3.30
2018-06-10T14:26:35.338Z,3.02
2018-06-10T14:29:05.646Z,3.55
2018-06-10T14:31:36.254Z,2.90
2018-06-10T14:34:06.546Z,3.10
2018-06-10T14:36:37.026Z,3.30
2018-06-10T14:39:09.775Z,2.75
2018-06-10T14:41:40.161Z,2.60
2018-06-10T14:44:10.450Z,2.60
2018-06-10T14:46:41.049Z,2.70
2018-06-10T14:49:11.397Z,3.20
2018-06-10T14:51:41.887Z,2.40
2018-06-10T14:54:12.177Z,2.60
2018-06-10T14:56:42.517Z,2.80
2018-06-10T14:59:12.790Z,2.60
2018-06-10T15:01:43.170Z,2.03
2018-06-10T15:04:13.909Z,2.47
2018-06-10T15:06:44.229Z,2.30
2018-06-10T15:09:14.867Z,2.37
2018-06-10T15:11:45.720Z,2.20
2018-06-10T15:14:16.529Z,2.47
2018-06-10T15:16:46.865Z,2.10
2018-06-10T15:19:17.133Z,2.30
2018-06-10T15:21:47.503Z,2.20
2018-06-10T15:24:17.928Z,3.00
2018-06-10T15:26:48.646Z,2.80
2018-06-10T15:29:18.918Z,2.30
2018-06-10T15:31:49.267Z,2.43
2018-06-10T15:34:20.045Z,2.00
2018-06-10T15:36:50.495Z,2.30
2018-06-10T15:39:20.823Z,2.33
2018-06-10T15:41:51.569Z,2.17
2018-06-10T15:44:21.898Z,2.50
2018-06-10T15:46:52.325Z,2.57
2018-06-10T15:49:22.606Z,2.37
2018-06-10T15:51:53.390Z,2.47
2018-06-10T15:54:23.697Z,2.43
2018-06-10T15:56:54.291Z,2.70
2018-06-10T15:59:24.631Z,2.47
2018-06-10T16:01:55.245Z,2.40
2018-06-10T16:04:25.525Z,2.27
2018-06-10T16:06:56.099Z,2.60
2018-06-10T16:09:26.413Z,2.47
2018-06-10T16:11:56.841Z,2.50
2018-06-10T16:14:27.175Z,2.90
2018-06-10T16:16:57.688Z,2.70
2018-06-10T16:19:28.009Z,2.60
2018-06-10T16:21:58.862Z,2.60
2018-06-10T16:24:29.374Z,2.30
2018-06-10T16:26:59.705Z,2.40
2018-06-10T16:29:29.997Z,3.10
2018-06-10T16:32:00.349Z,2.80
2018-06-10T16:34:30.833Z,2.70
2018-06-10T16:37:01.117Z,2.70
2018-06-10T16:39:31.498Z,2.80
2018-06-10T16:42:01.790Z,2.27
2018-06-10T16:44:32.383Z,2.23
2018-06-10T16:47:02.682Z,2.63
2018-06-10T16:49:33.238Z,2.60
2018-06-10T16:52:03.530Z,2.60
2018-06-10T16:54:34.033Z,2.77
2018-06-10T16:57:04.317Z,3.30
2018-06-10T16:59:34.885Z,2.90
2018-06-10T17:02:04.858Z,2.97
2018-06-10T17:04:35.141Z,3.07
2018-06-10T17:07:05.805Z,3.27
2018-06-10T17:09:36.080Z,3.27
2018-06-10T17:12:06.539Z,3.00
2018-06-10T17:14:36.993Z,3.50
2018-06-10T17:17:07.391Z,3.27
2018-06-10T17:19:37.683Z,2.70
2018-06-10T17:22:08.026Z,3.20
2018-06-10T17:24:38.694Z,2.80
2018-06-10T17:27:09.043Z,2.90
2018-06-10T17:29:39.338Z,3.27
2018-06-10T17:32:09.738Z,3.03
2018-06-10T17:34:40.098Z,3.70
2018-06-10T17:37:10.446Z,3.07
2018-06-10T17:39:40.749Z,3.40
2018-06-10T17:42:11.097Z,3.10
2018-06-10T17:44:41.422Z,2.83
2018-06-10T17:47:11.818Z,3.20
2018-06-10T17:49:42.149Z,2.63
2018-06-10T17:52:12.507Z,3.43
2018-06-10T17:54:42.856Z,3.37
2018-06-10T17:57:13.164Z,3.00
2018-06-10T17:59:43.641Z,3.03
2018-06-10T18:02:13.986Z,2.43
2018-06-10T18:04:44.274Z,2.90
2018-06-10T18:07:14.715Z,3.00
2018-06-10T18:09:45.047Z,2.77
2018-06-10T18:12:15.397Z,2.77
2018-06-10T18:14:45.678Z,2.40
2018-06-10T18:17:16.099Z,2.77
2018-06-10T18:19:46.583Z,2.60
2018-06-10T18:22:16.938Z,2.50
2018-06-10T18:24:47.586Z,2.73
2018-06-10T18:27:17.874Z,2.80
2018-06-10T18:29:48.219Z,2.60
2018-06-10T18:32:18.582Z,2.87
2018-06-10T18:34:48.874Z,2.90
2018-06-10T18:37:19.180Z,2.20
2018-06-10T18:39:49.515Z,2.57
2018-06-10T18:42:19.789Z,2.77
2018-06-10T18:44:50.110Z,2.40
2018-06-10T18:47:20.535Z,2.43
2018-06-10T18:49:50.834Z,2.73
2018-06-10T18:52:21.164Z,2.90
2018-06-10T18:54:51.834Z,3.27
2018-06-10T18:57:21.675Z,2.50
2018-06-10T18:59:52.168Z,2.50
2018-06-10T19:02:22.418Z,2.67
2018-06-10T19:04:53.021Z,2.70
2018-06-10T19:07:23.310Z,2.93
2018-06-10T19:09:53.919Z,2.83
2018-06-10T19:12:24.721Z,2.80
2018-06-10T19:14:55.090Z,3.60
2018-06-10T19:17:25.434Z,3.40
2018-06-10T19:19:57.682Z,2.90
2018-06-10T19:22:28.031Z,3.70
2018-06-10T19:24:58.701Z,3.17
2018-06-10T19:27:28.990Z,3.03
2018-06-10T19:29:59.631Z,3.27
2018-06-10T19:32:29.909Z,3.60
2018-06-10T19:35:00.250Z,3.23
2018-06-10T19:37:30.594Z,2.80
2018-06-10T19:40:00.629Z,3.00
2018-06-10T19:42:31.159Z,3.83
2018-06-10T19:45:01.190Z,3.03
2018-06-10T19:47:31.534Z,3.23
2018-06-10T19:50:01.820Z,3.37
2018-06-10T19:52:32.454Z,3.07
2018-06-10T19:55:02.741Z,2.97
2018-06-10T19:57:33.384Z,3.30
2018-06-10T20:00:03.718Z,3.67
2018-06-10T20:02:34.145Z,2.50
2018-06-10T20:05:04.546Z,3.00
2018-06-10T20:07:34.833Z,3.50
2018-06-10T20:10:05.293Z,2.83
2018-06-10T20:12:35.615Z,3.27
2018-06-10T20:15:06.074Z,3.10
2018-06-10T20:17:36.608Z,3.07
2018-06-10T20:20:07.574Z,3.00
2018-06-10T20:22:38.097Z,3.30
2018-06-10T20:25:08.530Z,3.30
2018-06-10T20:27:39.245Z,3.70
2018-06-10T20:30:09.576Z,3.70
2018-06-10T20:32:39.837Z,3.43
2018-06-10T20:35:10.273Z,3.20
2018-06-10T20:37:40.613Z,3.13
2018-06-10T20:40:11.081Z,3.50
2018-06-10T20:42:41.404Z,3.00
2018-06-10T20:45:12.021Z,3.30
2018-06-10T20:47:42.295Z,3.67
2018-06-10T20:50:12.870Z,3.00
2018-06-10T20:52:43.146Z,2.97
2018-06-10T20:55:13.725Z,2.70
2018-06-10T20:57:44.010Z,2.90
2018-06-10T21:00:14.614Z,2.50
2018-06-10T21:02:44.894Z,2.90
2018-06-10T21:05:15.229Z,2.53
2018-06-10T21:07:45.546Z,2.80
2018-06-10T21:10:15.946Z,2.70
2018-06-10T21:12:46.241Z,2.73
2018-06-10T21:15:16.597Z,3.00
2018-06-10T21:17:46.935Z,3.07
2018-06-10T21:20:17.253Z,3.20
2018-06-10T21:22:47.514Z,2.97
2018-06-10T21:25:17.876Z,3.23
2018-06-10T21:27:48.282Z,3.50
2018-06-10T21:30:18.565Z,2.83
2018-06-10T21:32:48.841Z,2.77
2018-06-10T21:35:19.206Z,3.03
2018-06-10T21:37:49.534Z,3.00
2018-06-10T21:40:19.831Z,3.13
2018-06-10T21:42:50.274Z,3.10
2018-06-10T21:45:20.560Z,3.03
2018-06-10T21:47:50.830Z,2.77
2018-06-10T21:50:21.228Z,3.10
2018-06-10T21:52:51.509Z,3.07
2018-06-10T21:55:21.782Z,3.30
2018-06-10T21:57:52.158Z,2.70
2018-06-10T22:00:27.855Z,3.20
2018-06-10T22:02:58.413Z,2.90
2018-06-10T22:05:28.738Z,3.20
2018-06-10T22:07:59.257Z,3.17
2018-06-10T22:10:29.583Z,3.00
2018-06-10T22:12:59.881Z,2.83
2018-06-10T22:15:30.285Z,3.17
2018-06-10T22:18:00.597Z,2.90
2018-06-10T22:20:30.955Z,3.73
2018-06-10T22:23:01.398Z,3.10
2018-06-10T22:25:31.846Z,3.10
2018-06-10T22:28:02.222Z,3.00
2018-06-10T22:30:33.267Z,3.13
2018-06-10T22:33:03.551Z,3.10
2018-06-10T22:35:34.302Z,2.63
2018-06-10T22:38:04.654Z,2.70
2018-06-10T22:40:35.026Z,2.77
2018-06-10T22:43:05.370Z,2.90
2018-06-10T22:45:35.707Z,3.03
2018-06-10T22:48:06.075Z,2.87
2018-06-10T22:50:36.418Z,3.17
2018-06-10T22:53:23.506Z,2.63
2018-06-10T22:55:54.098Z,2.90
2018-06-10T22:58:24.369Z,3.13
2018-06-10T23:00:54.802Z,2.77
2018-06-10T23:03:25.087Z,2.67
2018-06-10T23:05:55.421Z,2.70
2018-06-10T23:08:25.735Z,2.73
2018-06-10T23:10:56.163Z,2.53
2018-06-10T23:13:26.530Z,2.73
2018-06-10T23:15:57.050Z,2.90
2018-06-10T23:18:27.369Z,3.03
2018-06-10T23:20:57.663Z,2.80
2018-06-10T23:23:28.057Z,3.33
2018-06-10T23:25:58.418Z,3.40
2018-06-10T23:28:28.742Z,2.77
2018-06-10T23:30:59.090Z,3.10
2018-06-10T23:33:29.357Z,3.10
2018-06-10T23:35:59.845Z,2.97
2018-06-10T23:38:30.158Z,3.10
2018-06-10T23:41:00.481Z,3.40
2018-06-10T23:43:32.362Z,2.60
2018-06-10T23:46:02.681Z,3.10
2018-06-10T23:48:32.953Z,2.80
2018-06-10T23:51:03.331Z,3.63
2018-06-10T23:53:33.671Z,3.10
2018-06-10T23:56:04.242Z,3.53
2018-06-10T23:58:34.576Z,3.17
